Time;durP1;ratioP1;P1;durP2;ratioP2;P2;SDS_P1;SDS_P2;PMS_P1;PMS_P2;Temp;Humidity;BMP_temperature;BMP_pressure;BME280_temperature;BME280_humidity;BME280_pressure;Samples;Min_cycle;Max_cycle;Signal;HPM_P1;HPM_P2
2021/08/25 00:02:25;;;;;;;13.93;5.72;;;;;;;13.82;66.96;101056.16;2032651;87;31419;-63
2021/08/25 00:05:26;;;;;;;10.80;5.40;;;;;;;13.81;67.18;101053.55;2032730;87;33422;-65
2021/08/25 00:08:28;;;;;;;13.80;5.70;;;;;;;13.80;67.32;101055.84;2008336;87;30980;-61
2021/08/25 00:11:30;;;;;;;11.45;5.90;;;;;;;13.76;67.28;101052.41;1998246;89;27702;-61
2021/08/25 00:14:38;;;;;;;15.20;6.15;;;;;;;13.73;67.36;101052.60;1998188;88;29858;-60
2021/08/25 00:17:39;;;;;;;11.05;6.08;;;;;;;13.68;67.35;101048.77;2012549;87;30836;-60
2021/08/25 00:20:40;;;;;;;13.28;5.70;;;;;;;13.63;67.37;101051.30;2032360;87;34256;-61
2021/08/25 00:23:42;;;;;;;10.68;6.12;;;;;;;13.58;67.37;101050.65;2032365;87;29690;-61
2021/08/25 00:26:46;;;;;;;13.08;6.25;;;;;;;13.50;67.41;101042.50;2029106;87;27697;-61
2021/08/25 00:29:48;;;;;;;12.93;6.03;;;;;;;13.47;67.49;101036.41;1998298;88;29566;-61
2021/08/25 00:32:50;;;;;;;11.57;6.30;;;;;;;13.44;67.55;101034.72;1998052;89;32282;-60
2021/08/25 00:35:52;;;;;;;12.63;6.75;;;;;;;13.36;67.68;101030.17;2002288;88;33401;-60
2021/08/25 00:38:54;;;;;;;13.05;5.95;;;;;;;13.32;67.88;101029.92;2039964;87;30814;-60
2021/08/25 00:41:56;;;;;;;13.35;6.10;;;;;;;13.26;67.83;101025.72;2047174;87;27647;-63
2021/08/25 00:45:02;;;;;;;12.90;5.50;;;;;;;13.18;67.95;101028.79;2047122;87;29492;-61
2021/08/25 00:48:06;;;;;;;11.50;5.50;;;;;;;13.10;68.05;101025.59;2029225;87;31089;-62
2021/08/25 00:51:08;;;;;;;13.50;6.37;;;;;;;13.03;68.29;101025.02;2012355;88;32962;-61
2021/08/25 00:54:09;;;;;;;11.30;5.90;;;;;;;12.96;68.48;101033.45;2012492;88;30048;-61
2021/08/25 00:57:11;;;;;;;11.25;5.20;;;;;;;12.90;68.59;101027.45;2020359;87;27818;-60
2021/08/25 01:00:15;;;;;;;9.08;5.12;;;;;;;12.86;68.67;101019.57;2044817;87;29042;-64
2021/08/25 01:03:20;;;;;;;10.32;5.35;;;;;;;12.84;68.76;101025.04;2047091;87;31833;-61
2021/08/25 01:06:25;;;;;;;12.00;6.12;;;;;;;12.80;68.84;101024.78;2047082;87;32974;-61
2021/08/25 01:09:27;;;;;;;10.05;6.05;;;;;;;12.78;68.95;101030.70;2013880;87;29762;-61
2021/08/25 01:12:29;;;;;;;10.70;6.37;;;;;;;12.74;69.05;101024.59;2012216;88;27637;-63
2021/08/25 01:15:33;;;;;;;12.37;5.60;;;;;;;12.69;69.09;101017.21;2012439;88;28746;-60
2021/08/25 01:18:35;;;;;;;8.80;5.33;;;;;;;12.66;69.26;101020.52;2035050;87;31987;-60
2021/08/25 01:21:37;;;;;;;8.78;5.30;;;;;;;12.63;69.36;101013.94;2046788;87;33804;-60
2021/08/25 01:24:39;;;;;;;10.88;5.72;;;;;;;12.59;69.33;101009.19;2044823;87;29672;-60
2021/08/25 01:27:45;;;;;;;10.60;5.17;;;;;;;12.56;69.46;101007.98;2047282;87;27704;-61
2021/08/25 01:30:47;;;;;;;11.43;5.70;;;;;;;12.54;69.54;101007.18;2047183;87;29422;-61
2021/08/25 01:33:49;;;;;;;13.15;5.78;;;;;;;12.53;69.75;101012.15;2028315;87;32300;-60
2021/08/25 01:36:55;;;;;;;12.45;5.97;;;;;;;12.51;69.78;101008.66;2004942;88;33916;-60
2021/08/25 01:39:57;;;;;;;12.78;5.50;;;;;;;12.49;69.93;101010.09;1998141;89;30856;-60
2021/08/25 01:43:01;;;;;;;11.85;5.53;;;;;;;12.48;70.07;101004.80;2006150;87;27641;-60
2021/08/25 01:46:04;;;;;;;10.50;5.47;;;;;;;12.45;70.10;101008.48;2032762;87;28809;-60
2021/08/25 01:49:08;;;;;;;10.78;5.33;;;;;;;12.41;70.10;101006.89;2032536;87;32162;-61
2021/08/25 01:52:10;;;;;;;17.52;6.00;;;;;;;12.37;70.17;100997.22;2032461;87;33113;-60
2021/08/25 01:55:12;;;;;;;9.28;4.90;;;;;;;12.33;70.38;100994.27;1999351;87;29740;-59
2021/08/25 01:58:13;;;;;;;10.25;5.58;;;;;;;12.27;70.37;100989.56;1998357;89;27661;-60
2021/08/25 02:01:15;;;;;;;9.00;4.70;;;;;;;12.20;70.44;100982.75;1998020;89;29935;-60
2021/08/25 02:04:17;;;;;;;11.80;5.60;;;;;;;12.13;70.56;100981.27;2020123;87;32309;-59
2021/08/25 02:07:19;;;;;;;10.25;5.35;;;;;;;12.05;70.58;100986.13;2030685;87;33802;-64
2021/08/25 02:10:21;;;;;;;13.22;5.70;;;;;;;11.96;70.63;100988.72;1998174;89;29734;-60
2021/08/25 02:13:23;;;;;;;11.80;5.47;;;;;;;11.84;70.74;100983.42;2009709;87;27692;-60
2021/08/25 02:16:25;;;;;;;7.72;5.00;;;;;;;11.74;70.81;100984.77;2032185;87;28685;-60
2021/08/25 02:19:27;;;;;;;11.65;5.60;;;;;;;11.64;70.99;100979.78;2032294;87;31459;-60
2021/08/25 02:22:29;;;;;;;11.63;5.65;;;;;;;11.56;71.21;100975.23;2031684;87;33097;-61
2021/08/25 02:25:31;;;;;;;11.22;5.55;;;;;;;11.47;71.29;100975.61;1998368;87;30452;-60
2021/08/25 02:28:33;;;;;;;10.15;5.40;;;;;;;11.37;71.33;100980.48;1998366;89;27601;-60
2021/08/25 02:31:35;;;;;;;11.80;5.47;;;;;;;11.28;71.41;100979.06;1997967;89;29540;-60
2021/08/25 02:34:37;;;;;;;11.22;5.75;;;;;;;11.20;71.67;100977.18;2022650;87;32278;-60
2021/08/25 02:37:39;;;;;;;11.22;5.70;;;;;;;11.10;71.81;100976.20;2041452;86;34143;-60
2021/08/25 02:40:41;;;;;;;10.85;5.58;;;;;;;11.03;71.84;100975.17;2047178;87;30003;-72
2021/08/25 02:43:44;;;;;;;12.53;5.65;;;;;;;10.94;72.08;100968.38;2033478;87;27656;-61
2021/08/25 02:46:46;;;;;;;12.25;5.42;;;;;;;10.85;72.14;100968.77;2017629;87;28669;-60
2021/08/25 02:49:47;;;;;;;9.23;5.08;;;;;;;10.76;72.24;100965.98;2047190;87;31848;-60
2021/08/25 02:52:49;;;;;;;14.18;5.95;;;;;;;10.67;72.27;100956.50;2044381;86;33735;-66
2021/08/25 02:55:51;;;;;;;8.05;4.50;;;;;;;10.61;72.57;100958.06;2012331;88;30800;-73
2021/08/25 02:58:53;;;;;;;12.68;5.70;;;;;;;10.53;72.58;100955.69;2012680;88;28183;-72
2021/08/25 03:01:56;;;;;;;11.43;5.60;;;;;;;10.46;72.73;100955.54;2012121;88;29936;-60
2021/08/25 03:04:58;;;;;;;11.33;5.90;;;;;;;10.39;72.87;100955.35;2039586;87;31055;-60
2021/08/25 03:08:00;;;;;;;10.23;5.75;;;;;;;10.31;72.91;100954.27;2047158;87;34129;-60
2021/08/25 03:11:02;;;;;;;16.17;6.22;;;;;;;10.24;73.00;100954.97;2036042;87;30460;-74
2021/08/25 03:14:05;;;;;;;13.48;6.20;;;;;;;10.17;73.16;100951.66;2035493;87;28287;-70
2021/08/25 03:17:06;;;;;;;11.22;6.37;;;;;;;10.10;73.34;100952.80;2046939;87;30064;-64
2021/08/25 03:20:11;;;;;;;11.63;6.00;;;;;;;10.02;73.38;100943.72;2046756;87;31399;-63
2021/08/25 03:23:13;;;;;;;12.30;5.55;;;;;;;9.97;73.47;100937.69;2012582;88;32978;-64
2021/08/25 03:26:15;;;;;;;12.70;5.42;;;;;;;9.92;73.62;100936.11;2012620;88;30826;-70
2021/08/25 03:29:17;;;;;;;10.23;5.25;;;;;;;9.86;73.62;100931.38;2012781;88;27612;-73
2021/08/25 03:32:19;;;;;;;9.20;4.87;;;;;;;9.82;73.73;100931.56;2037421;87;29068;-72
2021/08/25 03:35:21;;;;;;;11.73;5.50;;;;;;;9.77;73.85;100929.50;2047151;87;31557;-73
2021/08/25 03:38:24;;;;;;;9.60;5.33;;;;;;;9.72;74.03;100923.84;2035604;87;33810;-60
2021/08/25 03:41:25;;;;;;;9.18;5.80;;;;;;;9.66;74.09;100919.19;2018197;87;30466;-61
2021/08/25 03:44:27;;;;;;;13.55;5.58;;;;;;;9.63;74.17;100924.19;1998395;88;28060;-60
2021/08/25 03:47:31;;;;;;;12.35;5.78;;;;;;;9.58;74.33;100923.47;1998365;88;28732;-60
2021/08/25 03:50:33;;;;;;;15.10;6.08;;;;;;;9.54;74.42;100921.83;2016200;87;31039;-63
2021/08/25 03:53:35;;;;;;;10.55;5.72;;;;;;;9.50;74.65;100926.89;2032336;87;34152;-60
2021/08/25 03:56:36;;;;;;;11.18;5.60;;;;;;;9.48;74.69;100924.73;2032674;87;30552;-60
2021/08/25 03:59:39;;;;;;;10.43;5.60;;;;;;;9.46;74.84;100924.77;2025697;87;27653;-62
2021/08/25 04:02:44;;;;;;;12.15;5.37;;;;;;;9.46;75.00;100926.58;2027923;87;28706;-62
2021/08/25 04:05:55;;;;;;;10.60;4.97;;;;;;;9.46;75.14;100925.25;2032557;87;30993;-62
2021/08/25 04:09:03;;;;;;;8.35;5.50;;;;;;;9.46;75.18;100923.43;2030396;87;33084;-60
2021/08/25 04:12:10;;;;;;;11.00;5.58;;;;;;;9.49;75.20;100923.33;2000767;87;29494;-60
2021/08/25 04:15:15;;;;;;;12.50;6.83;;;;;;;9.52;75.40;100916.55;1998572;89;27736;-60
2021/08/25 04:18:18;;;;;;;11.53;6.22;;;;;;;9.55;75.53;100915.09;2013985;87;29408;-60
2021/08/25 04:21:20;;;;;;;10.32;5.53;;;;;;;9.58;75.44;100910.09;2009520;87;32208;-65
2021/08/25 04:24:22;;;;;;;10.30;4.97;;;;;;;9.61;75.49;100919.80;2032620;87;33492;-61
2021/08/25 04:27:23;;;;;;;10.25;5.45;;;;;;;9.65;75.61;100918.77;2030978;87;29978;-60
2021/08/25 04:30:25;;;;;;;15.23;5.50;;;;;;;9.70;75.61;100909.64;2006351;87;27676;-62
2021/08/25 04:33:27;;;;;;;12.13;5.70;;;;;;;9.73;75.70;100906.86;1998012;89;29589;-64
2021/08/25 04:36:29;;;;;;;10.18;5.17;;;;;;;9.80;75.79;100910.19;1998506;88;32228;-61
2021/08/25 04:39:31;;;;;;;10.05;6.03;;;;;;;9.86;75.89;100910.42;2039431;87;33034;-61
2021/08/25 04:42:33;;;;;;;12.68;5.95;;;;;;;9.92;75.99;100910.69;2044810;87;30784;-61
2021/08/25 04:45:38;;;;;;;14.87;6.30;;;;;;;9.99;76.06;100909.51;2044690;87;27680;-60
2021/08/25 04:48:39;;;;;;;10.15;4.92;;;;;;;10.08;76.10;100909.62;2025797;87;32507;-61
2021/08/25 04:51:41;;;;;;;13.18;5.92;;;;;;;10.15;76.14;100903.98;2010407;87;31437;-61
2021/08/25 04:54:44;;;;;;;11.22;6.28;;;;;;;10.26;76.19;100902.72;2010445;88;33313;-60
2021/08/25 04:57:46;;;;;;;16.05;6.70;;;;;;;10.36;76.22;100912.13;2018988;87;29679;-60
2021/08/25 05:00:48;;;;;;;12.58;6.67;;;;;;;10.51;76.37;100903.11;2044832;87;27684;-60
2021/08/25 05:03:50;;;;;;;11.22;6.00;;;;;;;10.67;76.34;100903.39;2045077;87;28659;-60
2021/08/25 05:06:52;;;;;;;12.03;5.65;;;;;;;10.90;76.38;100906.47;2044752;87;32220;-61
2021/08/25 05:09:54;;;;;;;14.00;6.85;;;;;;;11.15;76.34;100900.95;2011377;87;32886;-61
2021/08/25 05:12:56;;;;;;;13.62;6.17;;;;;;;11.40;76.13;100902.56;2010262;88;30025;-61
2021/08/25 05:15:59;;;;;;;10.00;5.95;;;;;;;11.69;76.01;100903.08;2035442;87;27705;-61
2021/08/25 05:19:00;;;;;;;13.83;6.62;;;;;;;11.98;75.74;100903.15;2044571;87;29365;-62
2021/08/25 05:22:04;;;;;;;10.03;6.22;;;;;;;12.28;75.53;100894.59;2044656;87;31057;-61
2021/08/25 05:25:07;;;;;;;10.30;5.58;;;;;;;12.57;75.12;100891.01;2029444;87;33862;-68
2021/08/25 05:28:11;;;;;;;13.53;6.55;;;;;;;12.84;74.79;100890.59;1988134;88;29692;-67
2021/08/25 05:31:16;;;;;;;11.73;6.23;;;;;;;13.07;74.29;100886.73;2010335;88;27776;-68
2021/08/25 05:34:18;;;;;;;10.88;6.90;;;;;;;13.32;74.12;100883.27;2015610;87;28736;-69
2021/08/25 05:37:20;;;;;;;12.88;6.78;;;;;;;13.49;73.59;100874.33;2042515;85;31917;-68
2021/08/25 05:40:22;;;;;;;14.65;7.08;;;;;;;13.56;73.44;100874.41;2002701;87;32833;-67
2021/08/25 05:43:24;;;;;;;15.72;6.53;;;;;;;13.63;72.85;100873.14;1998116;89;29691;-69
2021/08/25 05:46:25;;;;;;;12.63;6.95;;;;;;;13.67;72.69;100874.70;2027292;87;27712;-62
2021/08/25 05:49:28;;;;;;;11.20;6.37;;;;;;;13.77;72.93;100877.77;2017499;87;28799;-62
2021/08/25 05:52:31;;;;;;;13.62;6.42;;;;;;;13.93;72.61;100881.87;1998273;89;30904;-65
2021/08/25 05:55:33;;;;;;;10.35;5.75;;;;;;;14.09;72.02;100883.72;2016693;87;33820;-72
2021/08/25 05:58:35;;;;;;;15.63;7.05;;;;;;;14.28;71.80;100883.55;2001398;87;30698;-71
2021/08/25 06:01:37;;;;;;;14.90;6.87;;;;;;;14.53;71.59;100876.30;1998087;88;28226;-67
2021/08/25 06:04:39;;;;;;;10.05;6.45;;;;;;;14.94;70.58;100861.41;1998037;88;29243;-69
2021/08/25 06:07:42;;;;;;;10.32;5.78;;;;;;;14.94;70.58;100861.41;2017545;87;31899;-73
2021/08/25 06:10:46;;;;;;;12.50;5.78;;;;;;;15.71;69.88;100883.39;2032102;87;33780;-70
2021/08/25 06:13:49;;;;;;;12.53;6.17;;;;;;;15.71;69.88;100883.39;2032213;87;30762;-70
2021/08/25 06:16:52;;;;;;;10.53;6.50;;;;;;;16.06;69.78;100886.60;2022186;87;27711;-68
2021/08/25 06:19:55;;;;;;;11.38;6.05;;;;;;;16.49;69.13;100882.97;1998117;89;29564;-69
2021/08/25 06:22:57;;;;;;;12.33;6.20;;;;;;;16.89;68.71;100879.46;1997861;89;32285;-63
2021/08/25 06:26:00;;;;;;;11.60;5.83;;;;;;;17.20;67.91;100875.20;1998276;87;32954;-63
2021/08/25 06:29:06;;;;;;;11.75;6.03;;;;;;;17.24;66.92;100880.30;2032294;87;30453;-62
2021/08/25 06:32:08;;;;;;;12.58;6.30;;;;;;;17.28;66.72;100876.41;2032471;87;27728;-61
2021/08/25 06:35:11;;;;;;;18.23;6.83;;;;;;;17.61;66.41;100879.11;2032236;87;29367;-62
2021/08/25 06:38:13;;;;;;;11.28;5.53;;;;;;;18.13;66.08;100870.95;2007655;87;32201;-61
2021/08/25 06:41:15;;;;;;;10.20;5.55;;;;;;;18.44;64.71;100876.87;1997880;89;33041;-61
2021/08/25 06:44:20;;;;;;;11.55;6.62;;;;;;;18.87;65.31;100871.91;1973247;89;30034;-62
2021/08/25 06:47:24;;;;;;;;;;;;;;;19.51;64.60;100869.31;1990682;87;27797;-61
2021/08/25 06:50:27;;;;;;;9.85;5.92;;;;;;;20.10;63.64;100857.41;1967386;89;29950;-61
2021/08/25 06:53:32;;;;;;;10.53;5.58;;;;;;;20.67;62.43;100850.52;1967630;90;32245;-62
2021/08/25 06:59:41;;;;;;;9.13;5.80;;;;;;;21.74;61.27;100838.73;1917744;92;29820;-63
2021/08/25 07:02:45;;;;;;;11.25;6.28;;;;;;;22.24;60.53;100843.36;1914889;92;27835;-64
2021/08/25 07:05:58;;;;;;;7.78;5.03;;;;;;;22.64;59.17;100833.93;1914639;93;28759;-62
2021/08/25 07:09:02;;;;;;;11.78;5.97;;;;;;;23.08;58.86;100837.09;1917539;92;31080;-62
2021/08/25 07:12:05;;;;;;;10.03;5.73;;;;;;;23.41;56.75;100829.97;1917601;92;33767;-63
2021/08/25 07:15:15;;;;;;;11.18;6.12;;;;;;;23.66;56.35;100832.05;1917775;92;30332;-62
2021/08/25 07:18:12;;;;;;;10.30;6.15;;;;;;;23.88;55.17;100820.39;1914948;92;27700;-63
2021/08/25 07:21:14;;;;;;;10.08;5.87;;;;;;;24.13;54.82;100822.09;1914467;93;28914;-63
2021/08/25 07:24:16;;;;;;;9.68;6.12;;;;;;;24.45;54.15;100821.27;1914440;93;31250;-63
2021/08/25 07:27:18;;;;;;;10.63;5.87;;;;;;;24.81;54.43;100824.91;1914666;92;32971;-70
2021/08/25 07:30:20;;;;;;;7.83;5.78;;;;;;;25.11;53.19;100815.06;1914735;93;29709;-61
2021/08/25 07:33:22;;;;;;;10.72;6.33;;;;;;;25.44;52.51;100813.44;1914729;93;27759;-63
2021/08/25 07:36:25;;;;;;;10.55;6.10;;;;;;;25.75;52.03;100803.33;1914727;91;28836;-62
2021/08/25 07:39:28;;;;;;;8.30;5.65;;;;;;;25.86;50.56;100802.71;1915952;92;31946;-63
2021/08/25 07:42:30;;;;;;;8.65;5.75;;;;;;;25.98;50.36;100797.80;1915153;92;34242;-62
2021/08/25 07:45:35;;;;;;;8.83;5.15;;;;;;;26.14;47.97;100795.64;1915188;92;30846;-64
2021/08/25 07:48:37;;;;;;;10.58;5.90;;;;;;;26.08;47.58;100786.16;1893995;92;27810;-71
2021/08/25 07:51:39;;;;;;;10.65;6.25;;;;;;;26.04;47.81;100785.63;1887186;94;28873;-62
2021/08/25 07:54:41;;;;;;;8.23;6.12;;;;;;;26.08;47.48;100782.87;1908285;93;31865;-61
2021/08/25 07:57:43;;;;;;;9.28;6.12;;;;;;;26.14;46.55;100788.28;1982079;87;33405;-62
2021/08/25 08:00:46;;;;;;;8.28;5.87;;;;;;;26.28;46.92;100783.16;1999182;89;30848;-61
2021/08/25 08:03:48;;;;;;;9.30;5.70;;;;;;;26.46;46.02;100778.89;2001242;89;27685;-67
2021/08/25 08:06:51;;;;;;;9.03;5.40;;;;;;;26.39;45.71;100769.09;1996213;88;30013;-65
2021/08/25 08:09:53;;;;;;;8.50;6.20;;;;;;;26.56;46.04;100775.99;1967841;90;32413;-64
2021/08/25 08:12:55;;;;;;;10.72;6.15;;;;;;;26.75;44.61;100774.30;1967957;90;34342;-68
2021/08/25 08:15:57;;;;;;;13.30;5.87;;;;;;;26.73;44.07;100772.23;1968405;90;30816;-64
2021/08/25 08:19:04;;;;;;;10.28;5.80;;;;;;;26.81;44.20;100768.66;1996715;89;27697;-63
2021/08/25 08:22:06;;;;;;;8.78;5.80;;;;;;;26.90;44.34;100762.11;1998385;87;28900;-62
2021/08/25 08:25:12;;;;;;;9.05;5.20;;;;;;;27.10;43.18;100756.26;1968237;90;31906;-63
2021/08/25 08:28:14;;;;;;;7.55;5.12;;;;;;;26.88;42.07;100754.58;1988274;89;32940;-66
2021/08/25 08:31:16;;;;;;;11.55;5.75;;;;;;;26.86;41.81;100745.64;2001124;88;30518;-65
2021/08/25 08:34:18;;;;;;;8.63;5.92;;;;;;;26.76;41.57;100738.91;1977798;88;27665;-66
2021/08/25 08:37:20;;;;;;;8.43;5.97;;;;;;;26.66;41.58;100734.95;1977586;89;29986;-66
2021/08/25 08:40:23;;;;;;;8.10;5.67;;;;;;;26.61;41.67;100730.48;2027787;86;32284;-67
2021/08/25 08:43:26;;;;;;;8.20;5.40;;;;;;;26.24;41.31;100726.31;2023943;87;33879;-61
2021/08/25 08:46:28;;;;;;;9.93;4.70;;;;;;;26.02;41.45;100729.15;1998454;89;29695;-63
2021/08/25 08:49:30;;;;;;;8.30;5.75;;;;;;;25.69;41.49;100722.17;1998641;89;27546;-68
2021/08/25 08:52:33;;;;;;;8.78;5.33;;;;;;;25.41;41.59;100716.88;1998460;87;28059;-62
2021/08/25 08:55:35;;;;;;;8.50;5.53;;;;;;;25.23;42.03;100715.59;2023465;88;32044;-60
2021/08/25 08:58:42;;;;;;;8.48;5.55;;;;;;;24.82;42.01;100717.02;2023311;88;33835;-61
2021/08/25 09:01:45;;;;;;;8.95;5.53;;;;;;;24.41;41.88;100715.25;2023645;88;29684;-61
2021/08/25 09:04:47;;;;;;;6.15;4.72;;;;;;;24.24;41.52;100710.98;2029421;87;27687;-61
2021/08/25 09:08:03;;;;;;;7.47;5.15;;;;;;;24.21;41.44;100707.70;2032527;87;29717;-62
2021/08/25 09:11:15;;;;;;;7.58;5.78;;;;;;;24.05;41.85;100709.26;2032568;87;31084;-63
2021/08/25 09:14:19;;;;;;;8.35;6.00;;;;;;;23.95;40.85;100705.18;2015401;87;33110;-63
2021/08/25 09:17:31;;;;;;;8.38;5.03;;;;;;;23.88;41.49;100693.63;1998377;88;30456;-66
2021/08/25 09:20:40;;;;;;;8.48;5.00;;;;;;;23.80;41.81;100692.55;1998155;89;27632;-62
2021/08/25 09:23:47;;;;;;;7.87;5.28;;;;;;;23.58;40.68;100686.11;1981080;87;28775;-63
2021/08/25 09:27:23;;;;;;;8.28;5.05;;;;;;;23.20;41.45;100686.10;2032482;87;30446;-68
2021/08/25 09:30:28;;;;;;;7.30;4.75;;;;;;;22.80;41.61;100682.62;2035315;87;33039;-66
2021/08/25 09:33:46;;;;;;;11.12;5.28;;;;;;;22.43;41.79;100686.11;2031818;87;29660;-69
2021/08/25 09:36:48;;;;;;;8.35;5.55;;;;;;;22.35;42.46;100681.33;2032315;87;27730;-67
2021/08/25 09:39:54;;;;;;;7.08;4.80;;;;;;;22.38;42.56;100665.16;2040786;85;29060;-68
2021/08/25 09:42:57;;;;;;;9.55;5.42;;;;;;;22.39;42.69;100664.16;2047759;86;31097;-67
2021/08/25 09:46:18;;;;;;;10.58;5.55;;;;;;;22.24;42.70;100655.56;2014291;87;33847;-65
2021/08/25 09:49:21;;;;;;;7.80;5.47;;;;;;;22.06;42.56;100660.36;2012962;88;30401;-62
2021/08/25 09:52:35;;;;;;;8.50;5.37;;;;;;;21.96;42.72;100654.02;2012938;88;27779;-66
2021/08/25 09:55:38;;;;;;;9.83;5.90;;;;;;;21.90;42.34;100647.27;2040789;87;30776;-68
2021/08/25 09:58:40;;;;;;;9.85;5.42;;;;;;;21.96;43.07;100639.89;2047635;86;30388;-63
2021/08/25 10:01:44;;;;;;;10.23;5.40;;;;;;;22.17;42.99;100641.63;2047287;86;35096;-65
2021/08/25 10:04:46;;;;;;;9.87;5.23;;;;;;;22.22;42.95;100642.55;2030138;86;29586;-70
2021/08/25 10:07:49;;;;;;;7.72;4.70;;;;;;;22.15;42.79;100635.45;2012862;87;27679;-68
2021/08/25 10:10:51;;;;;;;9.83;5.87;;;;;;;22.02;43.00;100635.73;2013048;88;28726;-62
2021/08/25 10:13:53;;;;;;;8.38;5.20;;;;;;;22.01;42.92;100623.09;2020237;87;31118;-62
2021/08/25 10:16:55;;;;;;;10.05;5.25;;;;;;;22.12;43.32;100621.57;2024200;87;33857;-66
2021/08/25 10:19:59;;;;;;;6.92;4.92;;;;;;;22.17;43.31;100618.44;2047437;87;29764;-68
2021/08/25 10:23:03;;;;;;;8.40;5.50;;;;;;;22.09;42.93;100613.66;1969197;88;27678;-68
2021/08/25 10:26:07;;;;;;;9.60;5.20;;;;;;;21.96;43.51;100611.25;2013203;88;31272;-64
2021/08/25 10:29:11;;;;;;;8.23;5.05;;;;;;;21.79;43.68;100604.61;2012891;87;31253;-64
2021/08/25 10:32:15;;;;;;;13.10;5.70;;;;;;;21.74;44.22;100596.50;2014628;87;33987;-62
2021/08/25 10:35:27;;;;;;;8.10;4.92;;;;;;;21.75;44.03;100590.92;2012637;88;30566;-67
2021/08/25 10:38:31;;;;;;;11.55;5.40;;;;;;;21.88;43.58;100585.17;2036960;87;28171;-65
2021/08/25 10:41:34;;;;;;;9.85;5.83;;;;;;;21.97;44.06;100577.50;2045604;87;29938;-62
2021/08/25 10:44:48;;;;;;;7.73;5.13;;;;;;;21.94;43.75;100577.79;2002251;87;32396;-64
2021/08/25 10:47:59;;;;;;;8.20;4.92;;;;;;;21.73;43.84;100577.05;2032529;87;34207;-69
2021/08/25 10:51:02;;;;;;;7.62;5.47;;;;;;;21.57;44.18;100564.80;2012764;87;29692;-63
2021/08/25 10:54:10;;;;;;;10.08;5.58;;;;;;;21.50;44.49;100563.66;2012809;87;27649;-66
2021/08/25 10:57:15;;;;;;;8.58;5.10;;;;;;;21.43;44.63;100550.23;2032142;86;28644;-61
2021/08/25 11:00:18;;;;;;;7.92;5.22;;;;;;;21.37;44.74;100543.48;2015126;87;31960;-61
2021/08/25 11:03:36;;;;;;;10.10;6.00;;;;;;;21.20;44.27;100533.62;2012677;88;33029;-61
2021/08/25 11:06:55;;;;;;;7.80;5.08;;;;;;;21.03;44.61;100528.84;2018821;86;45090;-62
2021/08/25 11:09:57;;;;;;;10.63;5.40;;;;;;;20.83;44.95;100522.48;2012881;88;27767;-70
2021/08/25 11:13:00;;;;;;;7.80;5.25;;;;;;;20.75;45.13;100511.76;2012790;88;30025;-70
2021/08/25 11:16:03;;;;;;;8.08;5.03;;;;;;;20.75;45.41;100501.35;2018432;87;31911;-68
2021/08/25 11:19:05;;;;;;;7.65;4.90;;;;;;;20.75;45.71;100504.07;2047726;86;33024;-68
2021/08/25 11:22:17;;;;;;;7.40;4.50;;;;;;;20.70;44.81;100488.64;2047464;87;30914;-63
2021/08/25 11:25:19;;;;;;;7.12;4.53;;;;;;;20.59;45.16;100485.03;2047692;87;28265;-62
2021/08/25 11:28:21;;;;;;;8.78;4.95;;;;;;;20.52;45.20;100483.84;2015914;86;29986;-62
2021/08/25 11:31:26;;;;;;;11.30;5.47;;;;;;;20.48;45.88;100475.09;2012724;88;31873;-63
2021/08/25 11:34:29;;;;;;;8.53;5.20;;;;;;;20.51;46.21;100473.95;2012866;88;34112;-62
2021/08/25 11:37:31;;;;;;;6.45;4.60;;;;;;;20.53;45.54;100472.44;2012047;87;30861;-62
2021/08/25 11:40:37;;;;;;;9.38;5.20;;;;;;;20.58;46.51;100464.73;2039014;87;27689;-66
2021/08/25 11:43:49;;;;;;;7.28;4.80;;;;;;;20.69;46.56;100458.33;2033170;85;28704;-63
2021/08/25 11:46:51;;;;;;;8.08;5.28;;;;;;;20.73;45.99;100455.70;2019425;87;31257;-70
2021/08/25 11:49:57;;;;;;;8.90;5.33;;;;;;;20.75;46.36;100452.34;1998034;89;34187;-63
2021/08/25 11:53:00;;;;;;;10.25;5.40;;;;;;;20.70;45.52;100443.72;1998351;89;29638;-62
2021/08/25 11:56:05;;;;;;;8.70;4.97;;;;;;;20.62;45.64;100434.88;2001773;87;27709;-63
2021/08/25 11:59:10;;;;;;;9.58;5.67;;;;;;;20.51;44.91;100429.04;2032701;87;29483;-63
2021/08/25 12:02:12;;;;;;;8.58;5.28;;;;;;;20.43;45.45;100426.16;2032233;87;32251;-63
2021/08/25 12:05:28;;;;;;;10.75;5.90;;;;;;;20.40;45.63;100422.34;2032504;87;32860;-62
2021/08/25 12:08:46;;;;;;;8.33;5.25;;;;;;;20.37;46.42;100419.38;2015766;87;29646;-62
2021/08/25 12:11:55;;;;;;;10.90;5.45;;;;;;;20.39;46.79;100412.46;2032613;87;27571;-62
2021/08/25 12:14:57;;;;;;;8.18;5.22;;;;;;;20.40;46.70;100395.98;2032732;87;29015;-62
2021/08/25 12:17:59;;;;;;;12.10;5.72;;;;;;;20.41;47.04;100388.70;2007403;87;32371;-65
2021/08/25 12:21:10;;;;;;;7.87;5.10;;;;;;;20.40;46.94;100397.34;1998294;89;32977;-62
2021/08/25 12:24:12;;;;;;;8.15;4.92;;;;;;;20.39;46.83;100396.98;1998316;88;30017;-62
2021/08/25 12:27:15;;;;;;;10.18;5.75;;;;;;;20.41;47.09;100384.62;2014129;87;27702;-61
2021/08/25 12:30:17;;;;;;;10.15;5.47;;;;;;;20.42;47.02;100387.70;2032269;87;29904;-62
2021/08/25 12:33:30;;;;;;;8.88;5.90;;;;;;;20.39;46.64;100377.94;2032489;87;30457;-63
2021/08/25 12:36:35;;;;;;;11.00;5.55;;;;;;;20.33;46.27;100369.83;2025072;87;32998;-62
2021/08/25 12:39:40;;;;;;;9.85;5.70;;;;;;;20.29;46.47;100372.45;1998219;88;30410;-63
2021/08/25 12:42:43;;;;;;;11.77;7.00;;;;;;;20.27;46.73;100370.88;1998254;89;27737;-64
2021/08/25 12:45:45;;;;;;;10.05;5.70;;;;;;;20.25;47.28;100373.75;1998271;89;28671;-70
2021/08/25 12:48:47;;;;;;;10.35;5.70;;;;;;;20.26;47.19;100361.88;2030678;87;31866;-66
2021/08/25 12:51:49;;;;;;;10.10;5.80;;;;;;;20.25;47.24;100363.36;2032416;87;32984;-67
2021/08/25 12:54:50;;;;;;;9.15;6.30;;;;;;;20.21;47.19;100361.41;2032581;87;29645;-66
2021/08/25 12:57:52;;;;;;;15.08;6.47;;;;;;;20.15;47.09;100360.11;2010775;87;28151;-66
2021/08/25 13:00:54;;;;;;;8.63;6.08;;;;;;;20.13;47.26;100354.42;1998435;89;28711;-64
2021/08/25 13:03:57;;;;;;;8.43;5.60;;;;;;;20.16;47.69;100353.67;1997958;89;31129;-67
2021/08/25 13:06:59;;;;;;;9.13;5.37;;;;;;;20.23;47.76;100348.55;2009585;87;33755;-66
2021/08/25 13:10:00;;;;;;;9.40;6.22;;;;;;;20.29;47.83;100345.77;2032275;87;30765;-65
2021/08/25 13:13:04;;;;;;;9.13;5.67;;;;;;;20.34;47.46;100336.19;2032712;87;27731;-64
2021/08/25 13:16:07;;;;;;;15.97;6.87;;;;;;;20.38;47.88;100338.11;2031572;87;29621;-64
2021/08/25 13:19:08;;;;;;;10.35;6.28;;;;;;;20.39;48.10;100330.83;1998327;88;31835;-64
2021/08/25 13:22:10;;;;;;;12.13;6.85;;;;;;;20.39;48.06;100321.30;1998165;89;33925;-64
2021/08/25 13:25:12;;;;;;;9.13;5.22;;;;;;;20.36;47.65;100316.14;1998163;89;29671;-63
2021/08/25 13:28:14;;;;;;;9.70;5.90;;;;;;;20.29;47.41;100308.52;2023362;87;27708;-65
2021/08/25 13:31:16;;;;;;;8.55;6.17;;;;;;;20.29;47.55;100303.59;2032119;87;29532;-66
2021/08/25 13:34:17;;;;;;;7.90;5.40;;;;;;;20.30;47.70;100299.88;2032401;87;31016;-65
2021/08/25 13:37:19;;;;;;;10.90;5.17;;;;;;;20.35;47.51;100294.89;2018226;87;33243;-65
2021/08/25 13:40:21;;;;;;;10.38;5.97;;;;;;;20.38;48.18;100287.77;2001125;88;30430;-67
2021/08/25 13:43:23;;;;;;;7.50;5.45;;;;;;;20.41;48.10;100283.94;2009829;88;28277;-65
2021/08/25 13:46:25;;;;;;;13.03;5.45;;;;;;;20.44;47.84;100280.42;2012006;87;28688;-66
2021/08/25 13:49:27;;;;;;;10.70;5.62;;;;;;;20.45;47.96;100276.70;2009999;88;31030;-65
2021/08/25 13:52:29;;;;;;;8.70;5.12;;;;;;;20.46;47.47;100272.98;2010078;88;32957;-66
2021/08/25 13:55:31;;;;;;;8.83;5.85;;;;;;;20.45;47.25;100273.98;2010111;88;29640;-65
2021/08/25 13:58:33;;;;;;;7.75;4.85;;;;;;;20.45;47.40;100269.02;2037746;87;27701;-65
2021/08/25 14:01:35;;;;;;;10.70;5.65;;;;;;;20.45;47.75;100254.05;2044716;87;29623;-66
2021/08/25 14:04:37;;;;;;;17.23;11.90;;;;;;;20.46;47.78;100248.49;2044705;87;31038;-65
2021/08/25 14:07:38;;;;;;;10.05;5.37;;;;;;;20.48;47.90;100244.25;2027776;87;33024;-65
2021/08/25 14:10:40;;;;;;;9.28;5.75;;;;;;;20.50;47.85;100230.01;2010124;88;29151;-65
2021/08/25 14:13:44;;;;;;;7.78;5.17;;;;;;;20.52;48.17;100228.01;2010164;88;27762;-65